Time;durP1;ratioP1;P1;durP2;ratioP2;P2;SDS_P1;SDS_P2;PMS_P1;PMS_P2;Temp;Humidity;BMP_temperature;BMP_pressure;BME280_temperature;BME280_humidity;BME280_pressure;Samples;Min_cycle;Max_cycle;Signal;HPM_P1;HPM_P2
2023/02/04 00:00:06;;;;;;;15.57;3.23;;;9.50;99.90;;;;;;5093335;28;20835;-59
2023/02/04 00:02:33;;;;;;;21.63;4.97;;;9.50;99.90;;;;;;5093243;28;20456;-58
2023/02/04 00:05:01;;;;;;;13.00;3.30;;;9.40;99.90;;;;;;5093205;28;20463;-58
2023/02/04 00:07:27;;;;;;;24.13;5.03;;;9.40;99.90;;;;;;5092768;28;20943;-59
2023/02/04 00:09:54;;;;;;;18.73;5.23;;;9.40;99.90;;;;;;5092823;28;20463;-58
2023/02/04 00:12:21;;;;;;;11.93;3.63;;;9.40;99.90;;;;;;5093255;28;20861;-58
2023/02/04 00:14:48;;;;;;;15.60;5.17;;;9.40;99.90;;;;;;5092973;28;20478;-58
2023/02/04 00:17:14;;;;;;;23.20;5.37;;;9.40;99.90;;;;;;5093081;28;20463;-58
2023/02/04 00:19:41;;;;;;;16.73;5.07;;;9.40;99.90;;;;;;5092943;28;20478;-58
2023/02/04 00:22:10;;;;;;;19.57;3.67;;;9.40;99.90;;;;;;5093047;28;20860;-59
2023/02/04 00:24:38;;;;;;;13.70;3.60;;;9.40;99.90;;;;;;5093010;28;20478;-58
2023/02/04 00:27:06;;;;;;;16.67;3.70;;;9.30;99.90;;;;;;5093178;28;20478;-58
2023/02/04 00:29:33;;;;;;;14.47;4.80;;;9.40;99.90;;;;;;5092910;28;20465;-59
2023/02/04 00:31:59;;;;;;;21.13;6.20;;;9.40;99.90;;;;;;5093272;28;20471;-58
2023/02/04 00:34:26;;;;;;;20.97;6.27;;;9.50;99.90;;;;;;5095126;28;20471;-59
2023/02/04 00:36:52;;;;;;;20.70;5.93;;;9.50;99.90;;;;;;5097580;28;20433;-58
2023/02/04 00:39:21;;;;;;;13.97;4.53;;;9.50;99.90;;;;;;5096623;28;20592;-58
2023/02/04 00:41:47;;;;;;;17.20;4.30;;;9.50;99.90;;;;;;5096692;28;20447;-58
2023/02/04 00:44:14;;;;;;;18.43;6.90;;;9.40;99.90;;;;;;5096727;28;20474;-59
2023/02/04 00:46:41;;;;;;;17.60;5.13;;;9.50;99.90;;;;;;5096932;28;20455;-59
2023/02/04 00:49:09;;;;;;;17.13;3.93;;;9.50;99.90;;;;;;5096836;28;20455;-59
2023/02/04 00:51:37;;;;;;;24.30;4.80;;;9.50;99.90;;;;;;5097220;28;20505;-59
2023/02/04 00:54:04;;;;;;;17.20;4.60;;;9.50;99.90;;;;;;5097714;28;20506;-59
2023/02/04 00:56:32;;;;;;;20.97;5.47;;;9.50;99.90;;;;;;5097567;28;20966;-59
2023/02/04 00:58:59;;;;;;;24.87;3.13;;;9.40;99.90;;;;;;5098702;28;20487;-59
2023/02/04 01:01:25;;;;;;;14.40;3.23;;;9.30;99.90;;;;;;5098682;28;20427;-59
2023/02/04 01:03:52;;;;;;;18.53;5.20;;;9.30;99.90;;;;;;5096189;28;20464;-59
2023/02/04 01:06:19;;;;;;;21.13;5.27;;;9.30;99.90;;;;;;5096177;28;20482;-59
2023/02/04 01:08:45;;;;;;;16.00;5.40;;;9.30;99.90;;;;;;5096288;28;20455;-58
2023/02/04 01:11:12;;;;;;;25.73;7.47;;;9.40;99.90;;;;;;5096173;28;20457;-59
2023/02/04 01:13:40;;;;;;;20.33;7.30;;;9.40;99.90;;;;;;5096116;28;20475;-59
2023/02/04 01:16:07;;;;;;;20.17;7.33;;;9.40;99.90;;;;;;5095852;28;20444;-59
2023/02/04 01:18:34;;;;;;;16.40;5.10;;;9.40;99.90;;;;;;5095614;28;20877;-59
2023/02/04 01:21:00;;;;;;;22.77;5.93;;;9.40;99.90;;;;;;5095913;28;20459;-59
2023/02/04 01:23:27;;;;;;;15.90;4.93;;;9.40;99.90;;;;;;5095894;28;20475;-59
2023/02/04 01:25:54;;;;;;;18.53;3.97;;;9.40;99.90;;;;;;5095724;28;20447;-59
2023/02/04 01:28:20;;;;;;;20.60;6.20;;;9.40;99.90;;;;;;5095682;28;20432;-58
2023/02/04 01:30:48;;;;;;;17.97;3.87;;;9.40;99.90;;;;;;5095446;28;20459;-59
2023/02/04 01:33:15;;;;;;;13.40;4.53;;;9.40;99.90;;;;;;5095247;28;20476;-59
2023/02/04 01:35:42;;;;;;;10.33;3.00;;;9.40;99.90;;;;;;5095362;28;20505;-59
2023/02/04 01:38:08;;;;;;;17.00;4.97;;;9.40;99.90;;;;;;5095403;28;20448;-58
2023/02/04 01:40:35;;;;;;;11.17;3.57;;;9.40;99.90;;;;;;5094919;28;20850;-59
2023/02/04 01:43:02;;;;;;;16.23;4.53;;;9.40;99.90;;;;;;5095101;28;20452;-59
2023/02/04 01:45:32;;;;;;;17.13;3.90;;;9.30;99.90;;;;;;5095009;28;20444;-58
2023/02/04 01:48:01;;;;;;;20.30;5.03;;;9.30;99.90;;;;;;5095153;28;20432;-59
2023/02/04 01:50:29;;;;;;;16.97;3.90;;;9.20;99.90;;;;;;5095110;28;20454;-58
2023/02/04 01:52:56;;;;;;;15.30;3.53;;;9.10;99.90;;;;;;5095309;28;20438;-59
2023/02/04 01:55:26;;;;;;;23.90;3.40;;;9.10;99.90;;;;;;5094917;28;20986;-59
2023/02/04 01:57:57;;;;;;;15.83;3.97;;;9.10;99.90;;;;;;5094846;28;20908;-59
2023/02/04 02:00:26;;;;;;;9.77;2.60;;;9.10;99.90;;;;;;5095079;28;20562;-59
2023/02/04 02:02:54;;;;;;;18.27;3.30;;;9.00;99.90;;;;;;5094934;28;20452;-59
2023/02/04 02:05:25;;;;;;;16.67;3.70;;;9.00;99.90;;;;;;5094632;28;20823;-59
2023/02/04 02:07:55;;;;;;;12.67;2.70;;;9.00;99.90;;;;;;5094671;28;20424;-59
2023/02/04 02:10:23;;;;;;;17.40;3.37;;;9.00;99.90;;;;;;5094651;28;20451;-59
2023/02/04 02:12:51;;;;;;;22.00;4.30;;;9.00;99.90;;;;;;5094726;28;20448;-59
2023/02/04 02:15:18;;;;;;;14.73;3.23;;;9.00;99.90;;;;;;5094180;28;20467;-59
2023/02/04 02:17:45;;;;;;;17.53;3.60;;;9.00;99.90;;;;;;5094696;28;20814;-58
2023/02/04 02:20:14;;;;;;;13.70;3.53;;;9.00;99.90;;;;;;5094454;28;20475;-59
2023/02/04 02:22:52;;;;;;;11.93;3.37;;;9.00;99.90;;;;;;5094361;28;20448;-59
2023/02/04 02:25:20;;;;;;;19.90;3.63;;;9.00;99.90;;;;;;5094754;28;20428;-59
2023/02/04 02:27:47;;;;;;;15.40;3.60;;;9.00;99.90;;;;;;5094279;28;20451;-58
2023/02/04 02:30:16;;;;;;;13.97;3.73;;;9.00;99.90;;;;;;5094373;28;20432;-58
2023/02/04 02:32:43;;;;;;;11.20;2.83;;;9.00;99.90;;;;;;5093863;28;20456;-58
2023/02/04 02:35:10;;;;;;;17.10;3.93;;;9.00;99.90;;;;;;5094167;28;20463;-58
2023/02/04 02:37:37;;;;;;;17.43;3.60;;;9.00;99.90;;;;;;5094166;28;20455;-58
2023/02/04 02:40:05;;;;;;;17.17;3.80;;;9.00;99.90;;;;;;5094387;28;20487;-58
2023/02/04 02:42:33;;;;;;;14.77;3.67;;;9.00;99.90;;;;;;5094067;28;20451;-58
2023/02/04 02:45:03;;;;;;;17.00;3.67;;;9.10;99.90;;;;;;5093970;28;20475;-58
2023/02/04 02:47:30;;;;;;;16.90;3.30;;;9.00;99.90;;;;;;5093734;28;20939;-58
2023/02/04 02:49:57;;;;;;;29.00;5.90;;;9.00;99.90;;;;;;5093668;28;20920;-58
2023/02/04 02:52:23;;;;;;;19.23;4.07;;;8.90;99.90;;;;;;5093858;28;20857;-59
2023/02/04 02:54:50;;;;;;;14.43;3.00;;;9.00;99.90;;;;;;5093852;28;20470;-58
2023/02/04 02:57:19;;;;;;;18.10;4.07;;;8.90;99.90;;;;;;5094180;28;20458;-58
2023/02/04 02:59:47;;;;;;;17.53;3.20;;;8.90;99.90;;;;;;5093712;28;20468;-58
2023/02/04 03:02:17;;;;;;;14.87;3.60;;;8.80;99.90;;;;;;5093705;28;20439;-58
2023/02/04 03:04:48;;;;;;;18.83;3.20;;;8.80;99.90;;;;;;5093974;28;20475;-58
2023/02/04 03:07:17;;;;;;;12.80;3.27;;;8.70;99.90;;;;;;5093658;28;20448;-58
2023/02/04 03:09:44;;;;;;;12.67;3.43;;;8.70;99.90;;;;;;5093275;28;20571;-59
2023/02/04 03:12:10;;;;;;;13.70;4.33;;;8.70;99.90;;;;;;5093615;28;20440;-59
2023/02/04 03:14:38;;;;;;;21.20;3.20;;;8.70;99.90;;;;;;5093209;28;20464;-59
2023/02/04 03:17:08;;;;;;;12.10;4.00;;;8.70;99.90;;;;;;5093605;28;20490;-58
2023/02/04 03:19:36;;;;;;;12.80;3.33;;;8.70;99.90;;;;;;5093566;28;20460;-59
2023/02/04 03:22:04;;;;;;;14.23;3.10;;;8.80;99.90;;;;;;5093591;28;20874;-59
2023/02/04 03:24:31;;;;;;;11.13;2.70;;;8.80;99.90;;;;;;5093131;28;20984;-58
2023/02/04 03:26:57;;;;;;;14.97;3.60;;;8.80;99.90;;;;;;5093555;28;20455;-58
2023/02/04 03:29:24;;;;;;;14.53;3.20;;;8.80;99.90;;;;;;5093534;28;20451;-58
2023/02/04 03:31:51;;;;;;;26.20;3.70;;;8.80;99.90;;;;;;5093224;28;20912;-59
2023/02/04 03:34:19;;;;;;;11.40;2.60;;;8.80;99.90;;;;;;5093471;28;20878;-58
2023/02/04 03:36:46;;;;;;;21.93;4.50;;;8.80;99.90;;;;;;5093527;28;20432;-58
2023/02/04 03:39:12;;;;;;;12.13;3.20;;;8.80;99.90;;;;;;5093059;28;20855;-58
2023/02/04 03:41:39;;;;;;;16.33;3.30;;;8.80;99.90;;;;;;5093344;28;20452;-58
2023/02/04 03:44:06;;;;;;;17.30;3.50;;;8.70;99.90;;;;;;5093303;28;20490;-59
2023/02/04 03:46:32;;;;;;;19.33;3.77;;;8.60;99.90;;;;;;5093443;28;20451;-58
2023/02/04 03:48:59;;;;;;;26.27;4.00;;;8.60;99.90;;;;;;5093276;28;20448;-58
2023/02/04 03:51:27;;;;;;;18.47;3.13;;;8.50;99.90;;;;;;5093351;28;20454;-59
2023/02/04 03:53:54;;;;;;;16.27;4.00;;;8.50;99.90;;;;;;5093210;28;20831;-59
2023/02/04 03:56:21;;;;;;;13.20;3.57;;;8.50;99.90;;;;;;5093308;28;20451;-58
2023/02/04 03:58:48;;;;;;;12.93;3.67;;;8.50;99.90;;;;;;5092887;28;20478;-59
2023/02/04 04:01:15;;;;;;;11.63;3.17;;;8.50;99.90;;;;;;5093133;28;20489;-59
2023/02/04 04:03:42;;;;;;;13.87;3.20;;;8.60;99.90;;;;;;5092816;28;20983;-59
2023/02/04 04:06:09;;;;;;;15.77;3.13;;;8.60;99.90;;;;;;5092806;28;20827;-59
2023/02/04 04:08:38;;;;;;;12.97;3.00;;;8.60;99.90;;;;;;5093935;28;20462;-58
2023/02/04 04:11:04;;;;;;;15.97;3.10;;;8.50;99.90;;;;;;5097031;28;20951;-59
2023/02/04 04:13:31;;;;;;;12.80;3.77;;;8.40;99.90;;;;;;5096832;28;20828;-59
2023/02/04 04:15:58;;;;;;;12.73;3.40;;;8.40;99.90;;;;;;5096822;28;20444;-59
2023/02/04 04:18:24;;;;;;;15.40;3.43;;;8.40;99.90;;;;;;5096899;28;20428;-59
2023/02/04 04:20:51;;;;;;;14.60;4.40;;;8.40;99.90;;;;;;5096739;28;20482;-59
2023/02/04 04:23:18;;;;;;;15.77;3.03;;;8.50;99.90;;;;;;5096602;28;20472;-59
2023/02/04 04:25:46;;;;;;;21.17;3.80;;;8.50;99.90;;;;;;5097066;28;20436;-59
2023/02/04 04:28:12;;;;;;;14.17;2.87;;;8.40;99.90;;;;;;5096604;28;20447;-59
2023/02/04 04:30:39;;;;;;;16.57;3.97;;;8.40;99.90;;;;;;5096615;28;20440;-58
2023/02/04 04:33:06;;;;;;;14.60;3.27;;;8.40;99.90;;;;;;5096158;28;20431;-59
2023/02/04 04:35:33;;;;;;;12.27;2.77;;;8.40;99.90;;;;;;5096511;28;20455;-58
2023/02/04 04:38:00;;;;;;;17.73;4.60;;;8.40;99.90;;;;;;5096434;28;20461;-58
2023/02/04 04:40:27;;;;;;;11.20;2.60;;;8.40;99.90;;;;;;5096296;28;20498;-58
2023/02/04 04:42:55;;;;;;;19.30;4.27;;;8.40;99.90;;;;;;5096135;28;20459;-59
2023/02/04 04:45:21;;;;;;;16.57;3.60;;;8.40;99.90;;;;;;5096325;28;20469;-58
2023/02/04 04:47:48;;;;;;;19.00;3.20;;;8.30;99.90;;;;;;5096297;28;20452;-58
2023/02/04 04:50:15;;;;;;;16.53;3.17;;;8.40;99.90;;;;;;5096260;28;20449;-58
2023/02/04 04:52:42;;;;;;;15.87;4.00;;;8.30;99.90;;;;;;5096177;28;20856;-59
2023/02/04 04:55:09;;;;;;;16.70;4.07;;;8.40;99.90;;;;;;5096175;28;20574;-58
2023/02/04 04:57:35;;;;;;;12.47;3.07;;;8.40;99.90;;;;;;5096097;28;20444;-58
2023/02/04 05:00:04;;;;;;;15.30;3.20;;;8.40;99.90;;;;;;5095972;28;20854;-58
2023/02/04 05:02:31;;;;;;;14.37;3.73;;;8.40;99.90;;;;;;5095915;28;20452;-59
2023/02/04 05:04:58;;;;;;;15.77;4.50;;;8.40;99.90;;;;;;5095906;28;20475;-58
2023/02/04 05:07:24;;;;;;;10.23;3.63;;;8.50;99.90;;;;;;5095906;28;20475;-58
2023/02/04 05:09:51;;;;;;;13.47;3.33;;;8.50;99.90;;;;;;5095445;28;20478;-59
2023/02/04 05:12:18;;;;;;;11.00;4.10;;;8.50;99.90;;;;;;5095827;28;20451;-59
2023/02/04 05:14:44;;;;;;;18.40;2.97;;;8.50;99.90;;;;;;5095157;28;20483;-59
2023/02/04 05:17:12;;;;;;;17.63;4.10;;;8.60;99.90;;;;;;5096351;28;20447;-58
2023/02/04 05:19:39;;;;;;;11.33;3.10;;;8.60;99.90;;;;;;5094819;28;20475;-58
2023/02/04 05:22:06;;;;;;;12.57;3.20;;;8.60;99.90;;;;;;5095545;28;20451;-58
2023/02/04 05:24:32;;;;;;;19.10;3.37;;;8.60;99.90;;;;;;5095517;28;20468;-58
2023/02/04 05:26:59;;;;;;;15.33;3.30;;;8.50;99.90;;;;;;5095608;28;20444;-58
2023/02/04 05:29:26;;;;;;;16.23;3.97;;;8.50;99.90;;;;;;5095498;28;20444;-58
2023/02/04 05:31:52;;;;;;;14.30;3.97;;;8.50;99.90;;;;;;5095375;28;20473;-59
2023/02/04 05:34:20;;;;;;;12.90;3.33;;;8.50;99.90;;;;;;5094991;28;20479;-58
2023/02/04 05:36:47;;;;;;;17.43;3.50;;;8.50;99.90;;;;;;5095347;28;20459;-58
2023/02/04 05:39:14;;;;;;;17.77;4.23;;;8.50;99.90;;;;;;5095240;28;20435;-58
2023/02/04 05:41:40;;;;;;;14.53;3.90;;;8.50;99.90;;;;;;5095205;28;20452;-58
2023/02/04 05:44:07;;;;;;;13.07;3.50;;;8.60;99.90;;;;;;5095048;28;20474;-58
2023/02/04 05:46:34;;;;;;;22.40;4.10;;;8.60;99.90;;;;;;5095179;28;20443;-58
2023/02/04 05:49:00;;;;;;;13.90;3.30;;;8.60;99.90;;;;;;5096193;28;20817;-58
2023/02/04 05:51:28;;;;;;;14.00;4.27;;;8.60;99.90;;;;;;5095007;28;20452;-58
2023/02/04 05:53:55;;;;;;;12.13;3.13;;;8.70;99.90;;;;;;5094544;28;21006;-58
2023/02/04 05:56:22;;;;;;;17.20;4.10;;;8.60;99.90;;;;;;5094975;28;20447;-58
2023/02/04 05:58:48;;;;;;;16.27;3.43;;;8.70;99.90;;;;;;5095022;28;20447;-58
2023/02/04 06:01:15;;;;;;;14.47;3.60;;;8.60;99.90;;;;;;5094814;28;20483;-59
2023/02/04 06:03:42;;;;;;;17.37;4.37;;;8.60;99.90;;;;;;5094863;28;20474;-59
2023/02/04 06:06:09;;;;;;;20.20;4.23;;;8.60;99.90;;;;;;5094816;28;20432;-58
2023/02/04 06:08:37;;;;;;;12.27;3.40;;;8.70;99.90;;;;;;5094477;28;20525;-58
2023/02/04 06:11:03;;;;;;;14.53;4.33;;;8.70;99.90;;;;;;5094358;28;20424;-57
2023/02/04 06:13:30;;;;;;;15.30;3.50;;;8.60;99.90;;;;;;5094608;28;20460;-58
2023/02/04 06:15:57;;;;;;;16.60;4.33;;;8.70;99.90;;;;;;5094669;28;20451;-58
2023/02/04 06:18:24;;;;;;;14.27;4.63;;;8.70;99.90;;;;;;5094516;28;20452;-57
2023/02/04 06:20:50;;;;;;;17.90;6.30;;;8.60;99.90;;;;;;5094527;28;20468;-59
2023/02/04 06:23:17;;;;;;;14.53;3.67;;;8.60;99.90;;;;;;5094524;28;20525;-57
2023/02/04 06:25:46;;;;;;;18.73;4.63;;;8.60;99.90;;;;;;5094408;28;20819;-57
2023/02/04 06:28:13;;;;;;;20.40;3.93;;;8.60;99.90;;;;;;5094389;28;20432;-58
2023/02/04 06:30:39;;;;;;;17.03;4.57;;;8.50;99.90;;;;;;5093886;28;20440;-58
2023/02/04 06:33:06;;;;;;;15.33;4.67;;;8.50;99.90;;;;;;5093957;28;20456;-58
2023/02/04 06:35:33;;;;;;;12.00;3.73;;;8.60;99.90;;;;;;5094303;28;20452;-58
2023/02/04 06:37:59;;;;;;;11.30;4.60;;;8.50;99.90;;;;;;5094283;28;20449;-58
2023/02/04 06:40:26;;;;;;;11.90;4.03;;;8.50;99.90;;;;;;5094209;28;20467;-58
2023/02/04 06:42:54;;;;;;;19.60;5.13;;;8.50;99.90;;;;;;5093699;28;20944;-58
2023/02/04 06:45:21;;;;;;;12.90;3.43;;;8.50;99.90;;;;;;5094053;28;20459;-58
2023/02/04 06:47:47;;;;;;;20.97;6.23;;;8.50;99.90;;;;;;5095011;28;20500;-58
2023/02/04 06:50:17;;;;;;;16.23;5.43;;;8.40;99.90;;;;;;5094782;28;20796;-57
2023/02/04 06:52:44;;;;;;;14.70;4.50;;;8.40;99.90;;;;;;5093658;28;20473;-58
2023/02/04 06:55:11;;;;;;;27.20;5.97;;;8.40;99.90;;;;;;5093502;28;20505;-57
2023/02/04 06:57:37;;;;;;;16.37;4.33;;;8.40;99.90;;;;;;5093994;28;20503;-57
2023/02/04 07:00:07;;;;;;;16.50;4.87;;;8.40;99.90;;;;;;5093990;28;20491;-58
2023/02/04 07:02:35;;;;;;;17.93;4.20;;;8.40;99.90;;;;;;5093997;28;20474;-59
2023/02/04 07:05:02;;;;;;;17.30;4.50;;;8.30;99.90;;;;;;5093830;28;20468;-58
2023/02/04 07:07:28;;;;;;;18.37;4.10;;;8.10;99.90;;;;;;5094073;28;20432;-59
2023/02/04 07:09:55;;;;;;;18.43;5.10;;;8.20;99.90;;;;;;5093589;28;20455;-59
2023/02/04 07:12:22;;;;;;;13.00;3.97;;;8.20;99.90;;;;;;5094375;28;20459;-59
2023/02/04 07:14:48;;;;;;;16.33;5.30;;;8.20;99.90;;;;;;5095105;28;20917;-59
2023/02/04 07:17:16;;;;;;;18.87;4.70;;;8.20;99.90;;;;;;5094236;28;20447;-59
2023/02/04 07:19:43;;;;;;;19.90;5.17;;;8.30;99.90;;;;;;5094397;28;20450;-59
2023/02/04 07:22:10;;;;;;;17.17;6.20;;;8.30;99.90;;;;;;5094971;28;20436;-61
2023/02/04 07:24:37;;;;;;;20.40;4.27;;;8.40;99.90;;;;;;5094596;28;20483;-59
2023/02/04 07:27:03;;;;;;;14.50;4.33;;;8.40;99.90;;;;;;5095324;28;20443;-59
2023/02/04 07:29:30;;;;;;;20.13;5.30;;;8.40;99.90;;;;;;5096127;28;20459;-59
2023/02/04 07:31:57;;;;;;;19.93;4.50;;;8.50;99.90;;;;;;5097316;28;20443;-58
2023/02/04 07:34:25;;;;;;;27.37;5.33;;;8.50;99.90;;;;;;5094665;28;20542;-59
2023/02/04 07:36:51;;;;;;;19.00;5.30;;;8.50;99.90;;;;;;5093539;28;20461;-59
2023/02/04 07:39:18;;;;;;;29.20;5.00;;;8.50;99.90;;;;;;5093318;28;20978;-59
2023/02/04 07:41:45;;;;;;;16.53;5.30;;;8.50;99.90;;;;;;5093549;28;20471;-58
2023/02/04 07:44:12;;;;;;;18.43;4.70;;;8.50;99.90;;;;;;5096830;28;20463;-59
2023/02/04 07:46:38;;;;;;;18.43;5.60;;;8.50;99.90;;;;;;5098530;28;20435;-58
2023/02/04 07:49:05;;;;;;;14.57;5.73;;;8.50;99.90;;;;;;5097655;28;20443;-59
2023/02/04 07:51:33;;;;;;;23.60;7.70;;;8.60;99.90;;;;;;5097320;28;20469;-58
2023/02/04 07:54:00;;;;;;;19.63;5.80;;;8.60;99.90;;;;;;5097451;28;20479;-60
2023/02/04 07:56:27;;;;;;;20.33;6.10;;;8.70;99.90;;;;;;5097356;28;20443;-59
2023/02/04 07:58:54;;;;;;;16.03;6.50;;;8.70;99.90;;;;;;5096972;28;21009;-58
2023/02/04 08:01:20;;;;;;;15.60;5.30;;;8.70;99.90;;;;;;5097165;28;20467;-58
2023/02/04 08:03:47;;;;;;;16.43;5.37;;;8.80;99.90;;;;;;5097158;28;20468;-58
2023/02/04 08:06:14;;;;;;;22.83;5.70;;;8.80;99.90;;;;;;5097104;28;20463;-59
2023/02/04 08:08:42;;;;;;;23.60;5.90;;;8.80;99.90;;;;;;5096839;28;20565;-58
2023/02/04 08:11:08;;;;;;;18.20;5.10;;;8.80;99.90;;;;;;5096972;28;20451;-59
2023/02/04 08:13:35;;;;;;;20.87;5.83;;;8.80;99.90;;;;;;5096286;28;20486;-59
2023/02/04 08:16:02;;;;;;;18.93;6.37;;;8.80;99.90;;;;;;5096898;28;20810;-59
2023/02/04 08:18:29;;;;;;;22.70;6.30;;;8.70;99.90;;;;;;5096854;28;20465;-57
2023/02/04 08:20:55;;;;;;;17.93;5.90;;;8.80;99.90;;;;;;5096451;28;20483;-58
2023/02/04 08:23:22;;;;;;;21.83;5.70;;;8.70;99.90;;;;;;5096313;28;20818;-58
2023/02/04 08:25:50;;;;;;;19.43;6.37;;;8.70;99.90;;;;;;5096740;28;20479;-56
2023/02/04 08:28:17;;;;;;;16.23;6.40;;;8.70;99.90;;;;;;5096879;28;20428;-58
2023/02/04 08:30:44;;;;;;;25.97;7.00;;;8.70;99.90;;;;;;5096824;28;20439;-57
2023/02/04 08:33:10;;;;;;;22.73;8.00;;;8.70;99.90;;;;;;5096516;28;20459;-57
2023/02/04 08:35:37;;;;;;;16.83;6.87;;;8.70;99.90;;;;;;5096538;28;20451;-57
2023/02/04 08:38:04;;;;;;;21.10;7.50;;;8.70;99.90;;;;;;5096567;28;20487;-57
2023/02/04 08:40:30;;;;;;;21.90;7.83;;;8.80;99.90;;;;;;5095973;28;20885;-58
2023/02/04 08:42:58;;;;;;;23.33;9.00;;;8.80;99.90;;;;;;5096344;28;20431;-58
2023/02/04 08:45:25;;;;;;;23.60;9.30;;;8.80;99.90;;;;;;5096044;28;20943;-58
2023/02/04 08:47:52;;;;;;;23.10;8.27;;;8.80;99.90;;;;;;5096340;28;20450;-57
2023/02/04 08:50:19;;;;;;;26.63;10.30;;;8.80;99.90;;;;;;5096321;28;20463;-57
2023/02/04 08:52:45;;;;;;;28.07;9.43;;;8.90;99.90;;;;;;5096362;28;20506;-58
2023/02/04 08:55:12;;;;;;;22.80;10.20;;;9.00;99.90;;;;;;5095290;28;20472;-58
2023/02/04 08:57:39;;;;;;;31.77;9.70;;;8.90;99.90;;;;;;5095777;28;20971;-58
2023/02/04 09:00:08;;;;;;;25.13;10.03;;;9.00;99.90;;;;;;5096903;28;20901;-58
2023/02/04 09:02:35;;;;;;;30.43;10.03;;;9.00;99.90;;;;;;5095948;28;20475;-59
2023/02/04 09:05:01;;;;;;;30.50;10.80;;;9.00;99.90;;;;;;5095625;28;20979;-58
2023/02/04 09:07:28;;;;;;;25.57;9.97;;;9.00;99.90;;;;;;5095976;28;20474;-58
2023/02/04 09:09:55;;;;;;;28.30;10.50;;;9.00;99.90;;;;;;5095445;28;20471;-59
2023/02/04 09:12:21;;;;;;;26.67;10.43;;;9.10;99.90;;;;;;5095922;28;20455;-59
2023/02/04 09:14:48;;;;;;;28.80;10.37;;;9.10;99.90;;;;;;5095720;28;20468;-59
2023/02/04 09:17:16;;;;;;;24.50;11.47;;;9.10;99.90;;;;;;5095743;28;20452;-59
2023/02/04 09:19:43;;;;;;;31.73;11.60;;;9.10;99.90;;;;;;5095688;28;20451;-59
2023/02/04 09:22:12;;;;;;;33.07;10.93;;;9.10;99.90;;;;;;5095370;28;21060;-59
2023/02/04 09:24:38;;;;;;;33.60;13.00;;;9.20;99.90;;;;;;5095605;28;20463;-59
2023/02/04 09:27:05;;;;;;;30.60;12.37;;;9.30;99.90;;;;;;5095545;28;20803;-59
2023/02/04 09:29:32;;;;;;;32.57;11.20;;;9.30;99.90;;;;;;5095549;28;20443;-59
2023/02/04 09:31:59;;;;;;;38.87;11.43;;;9.30;99.90;;;;;;5095192;28;20455;-59
2023/02/04 09:34:27;;;;;;;32.80;12.43;;;9.30;99.90;;;;;;5095023;28;20979;-59
2023/02/04 09:36:53;;;;;;;27.97;10.00;;;9.40;99.90;;;;;;5095403;28;20428;-60
2023/02/04 09:39:20;;;;;;;25.40;10.13;;;9.50;99.90;;;;;;5095373;28;20450;-59
2023/02/04 09:41:47;;;;;;;25.10;11.30;;;9.50;99.90;;;;;;5094941;28;20967;-59
2023/02/04 09:44:17;;;;;;;24.40;9.83;;;9.60;99.90;;;;;;5095130;28;20475;-60
2023/02/04 09:46:48;;;;;;;26.60;11.30;;;9.70;99.90;;;;;;5095249;28;20432;-59
2023/02/04 09:49:15;;;;;;;34.10;11.80;;;9.60;99.90;;;;;;5095250;28;20432;-60
2023/02/04 09:51:47;;;;;;;29.87;10.30;;;9.60;99.90;;;;;;5094720;28;20908;-60
2023/02/04 09:54:17;;;;;;;30.93;11.27;;;9.70;99.90;;;;;;5094963;28;20516;-59
2023/02/04 09:56:43;;;;;;;28.23;10.37;;;9.70;99.90;;;;;;5095034;28;20439;-59
2023/02/04 09:59:12;;;;;;;35.70;10.40;;;9.80;99.90;;;;;;5094950;28;20816;-60
2023/02/04 10:01:39;;;;;;;27.43;10.20;;;9.80;99.90;;;;;;5094795;28;20494;-59
2023/02/04 10:04:10;;;;;;;32.70;10.83;;;9.90;99.90;;;;;;5094808;28;20464;-59
2023/02/04 10:06:37;;;;;;;28.77;10.73;;;9.90;99.90;;;;;;5094473;28;20838;-59
2023/02/04 10:09:05;;;;;;;22.80;9.13;;;9.90;99.90;;;;;;5094498;28;20466;-59
2023/02/04 10:11:36;;;;;;;31.90;11.20;;;10.00;99.90;;;;;;5094696;28;20455;-60
2023/02/04 10:14:02;;;;;;;30.27;11.17;;;10.00;99.90;;;;;;5094301;28;20928;-59
2023/02/04 10:16:32;;;;;;;28.60;10.07;;;10.20;99.90;;;;;;5094622;28;20436;-59
2023/02/04 10:19:00;;;;;;;22.80;9.50;;;10.30;99.90;;;;;;5094838;28;20799;-59
2023/02/04 10:21:28;;;;;;;32.33;10.93;;;10.30;99.90;;;;;;5094424;28;20476;-60
2023/02/04 10:23:57;;;;;;;27.00;9.30;;;10.50;99.90;;;;;;5094481;28;20883;-58
2023/02/04 10:26:28;;;;;;;26.87;8.87;;;10.60;99.90;;;;;;5094351;28;20428;-58
2023/02/04 10:29:00;;;;;;;20.33;8.43;;;10.70;99.90;;;;;;5094055;28;20828;-58
2023/02/04 10:31:29;;;;;;;23.67;9.20;;;10.90;99.90;;;;;;5094293;28;20489;-59
2023/02/04 10:34:07;;;;;;;28.07;8.87;;;11.10;99.90;;;;;;5094249;28;20548;-58
2023/02/04 10:36:34;;;;;;;25.30;8.87;;;11.20;99.90;;;;;;5094285;28;20420;-58
2023/02/04 10:39:01;;;;;;;31.03;12.70;;;11.20;99.90;;;;;;5094161;28;20444;-59
2023/02/04 10:41:30;;;;;;;34.97;21.33;;;11.40;99.90;;;;;;5093968;28;20480;-60
2023/02/04 10:44:04;;;;;;;30.07;10.50;;;11.40;99.90;;;;;;5094171;28;20478;-60
2023/02/04 10:46:32;;;;;;;24.90;13.20;;;11.60;99.90;;;;;;5094102;28;20466;-60
2023/02/04 10:48:59;;;;;;;27.07;11.10;;;11.70;99.80;;;;;;5093836;28;20528;-59
2023/02/04 10:51:25;;;;;;;22.83;8.20;;;11.80;99.40;;;;;;5094086;28;20432;-59
2023/02/04 10:56:38;;;;;;;27.23;8.53;;;11.90;97.50;;;;;;5093682;28;20902;-59
2023/02/04 10:59:06;;;;;;;24.87;8.80;;;11.90;97.30;;;;;;5093972;28;20849;-60
2023/02/04 11:01:33;;;;;;;30.47;8.67;;;12.10;97.50;;;;;;5093777;28;20484;-60
2023/02/04 11:03:59;;;;;;;29.93;8.40;;;12.20;97.70;;;;;;5093675;28;20475;-60
2023/02/04 11:06:26;;;;;;;29.10;8.57;;;12.40;96.70;;;;;;5093790;28;20474;-60
2023/02/04 11:08:54;;;;;;;28.70;8.47;;;12.60;96.70;;;;;;5093654;28;20974;-59
2023/02/04 11:11:24;;;;;;;26.47;9.63;;;12.80;96.60;;;;;;5093692;28;20459;-60
2023/02/04 11:14:02;;;;;;;26.47;7.43;;;13.10;96.60;;;;;;5093592;28;20479;-60
2023/02/04 11:16:31;;;;;;;27.47;8.53;;;13.40;96.30;;;;;;5093275;28;20477;-60
2023/02/04 11:19:00;;;;;;;20.50;6.80;;;13.60;96.00;;;;;;5093104;28;20453;-60
2023/02/04 11:21:29;;;;;;;23.53;8.70;;;13.80;95.40;;;;;;5093271;28;20476;-59
2023/02/04 11:24:20;;;;;;;21.67;7.17;;;14.00;94.60;;;;;;5093343;28;20885;-59
2023/02/04 11:26:48;;;;;;;28.13;8.07;;;14.10;94.00;;;;;;5093612;28;20832;-60
2023/02/04 11:29:38;;;;;;;26.10;7.87;;;14.30;93.00;;;;;;5093222;28;20947;-59
2023/02/04 11:32:07;;;;;;;22.13;7.00;;;14.30;92.60;;;;;;5090172;28;20448;-60
2023/02/04 11:34:46;;;;;;;21.90;7.00;;;14.40;92.00;;;;;;5093362;28;20472;-60
2023/02/04 11:37:34;;;;;;;26.23;8.23;;;14.30;90.00;;;;;;5093503;28;20435;-60
2023/02/04 11:40:01;;;;;;;25.73;6.73;;;14.20;89.80;;;;;;5093901;28;20437;-61
2023/02/04 11:42:32;;;;;;;21.77;7.53;;;14.20;89.60;;;;;;5093361;28;20479;-59
2023/02/04 11:45:05;;;;;;;25.30;7.77;;;14.10;88.50;;;;;;5093366;28;20554;-60
2023/02/04 11:47:36;;;;;;;29.67;8.37;;;13.90;89.10;;;;;;5093405;28;20432;-60
2023/02/04 11:50:10;;;;;;;31.40;7.10;;;13.90;90.20;;;;;;5093094;28;20904;-59
2023/02/04 11:52:37;;;;;;;21.43;6.80;;;13.80;89.00;;;;;;5093450;28;20419;-60
2023/02/04 11:55:03;;;;;;;22.67;7.43;;;13.60;90.10;;;;;;5093323;28;20468;-59
2023/02/04 11:57:39;;;;;;;27.90;7.60;;;13.60;90.20;;;;;;5093422;28;20436;-60
2023/02/04 12:00:14;;;;;;;28.87;7.47;;;13.70;90.70;;;;;;5093005;28;20471;-60
2023/02/04 12:02:43;;;;;;;31.10;7.83;;;13.70;90.40;;;;;;5093239;28;20520;-59
2023/02/04 12:05:13;;;;;;;22.77;6.87;;;13.80;90.50;;;;;;5093213;28;20468;-60
2023/02/04 12:07:40;;;;;;;27.57;7.27;;;13.90;90.80;;;;;;5093170;28;20439;-60
2023/02/04 12:10:24;;;;;;;26.00;7.90;;;14.20;89.80;;;;;;5092845;28;20468;-60
2023/02/04 12:12:54;;;;;;;24.87;8.40;;;14.50;85.30;;;;;;5092827;28;20428;-60
2023/02/04 12:15:23;;;;;;;25.77;6.63;;;14.70;84.90;;;;;;5093191;28;20439;-60
2023/02/04 12:18:01;;;;;;;22.70;6.80;;;14.70;82.20;;;;;;5093194;28;20472;-60
2023/02/04 12:20:28;;;;;;;25.43;7.37;;;14.60;82.30;;;;;;5094100;28;20827;-60
2023/02/04 12:22:56;;;;;;;27.43;7.33;;;14.70;82.70;;;;;;5092949;28;20490;-60
2023/02/04 12:25:23;;;;;;;23.40;6.00;;;14.70;82.60;;;;;;5093175;28;20447;-60
2023/02/04 12:27:53;;;;;;;18.60;5.43;;;14.60;81.50;;;;;;5093013;28;20448;-59
2023/02/04 12:30:20;;;;;;;16.20;6.47;;;14.60;81.60;;;;;;5095116;28;20546;-59
2023/02/04 12:32:48;;;;;;;22.50;6.90;;;14.30;81.40;;;;;;5096647;28;20447;-60
2023/02/04 12:35:15;;;;;;;24.77;7.20;;;14.20;81.70;;;;;;5096304;28;20863;-60
2023/02/04 12:37:42;;;;;;;29.80;6.60;;;14.30;82.90;;;;;;5096730;28;20439;-59
2023/02/04 12:40:10;;;;;;;27.57;6.67;;;14.40;82.90;;;;;;5097300;28;20432;-60
2023/02/04 12:42:37;;;;;;;23.27;6.60;;;14.50;81.50;;;;;;5096603;28;20487;-60
2023/02/04 12:45:04;;;;;;;23.07;5.83;;;14.50;81.10;;;;;;5099596;28;20468;-60
2023/02/04 12:47:30;;;;;;;16.70;5.27;;;14.40;77.80;;;;;;5104873;28;20445;-59